createdAt,value
2018-12-10T00:01:04.669Z,1.90
2018-12-10T00:03:36.118Z,2.13
2018-12-10T00:06:05.671Z,1.98
2018-12-10T00:08:34.942Z,2.07
2018-12-10T00:11:04.153Z,2.50
2018-12-10T00:13:33.616Z,2.17
2018-12-10T00:16:02.896Z,2.53
2018-12-10T00:18:32.156Z,3.40
2018-12-10T00:21:01.345Z,2.40
2018-12-10T00:23:30.564Z,2.20
2018-12-10T00:25:59.729Z,1.70
2018-12-10T00:28:28.978Z,2.27
2018-12-10T00:30:58.164Z,2.87
2018-12-10T00:33:27.398Z,1.82
2018-12-10T00:35:56.927Z,2.30
2018-12-10T00:38:26.155Z,1.70
2018-12-10T00:40:55.365Z,2.13
2018-12-10T00:43:24.625Z,1.90
2018-12-10T00:45:53.813Z,1.80
2018-12-10T00:48:23.029Z,2.05
2018-12-10T00:50:52.249Z,2.00
2018-12-10T00:53:21.457Z,2.83
2018-12-10T00:55:50.679Z,1.87
2018-12-10T00:58:19.869Z,1.60
2018-12-10T01:00:49.196Z,1.83
2018-12-10T01:03:18.453Z,1.77
2018-12-10T01:05:47.653Z,1.80
2018-12-10T01:08:17.225Z,1.80
2018-12-10T01:10:46.492Z,1.90
2018-12-10T01:13:16.495Z,1.95
2018-12-10T01:15:45.728Z,2.02
2018-12-10T01:18:15.533Z,2.70
2018-12-10T01:20:44.901Z,2.45
2018-12-10T01:23:14.591Z,1.93
2018-12-10T01:25:43.828Z,2.05
2018-12-10T01:28:13.390Z,2.57
2018-12-10T01:30:42.626Z,1.90
2018-12-10T01:33:12.022Z,2.53
2018-12-10T01:35:41.397Z,2.30
2018-12-10T01:38:10.595Z,2.10
2018-12-10T01:40:39.993Z,1.97
2018-12-10T01:43:09.361Z,1.80
2018-12-10T01:45:38.595Z,1.70
2018-12-10T01:48:07.824Z,1.83
2018-12-10T01:50:37.089Z,2.25
2018-12-10T01:53:06.311Z,1.53
2018-12-10T01:55:35.520Z,1.70
2018-12-10T01:58:04.717Z,1.53
2018-12-10T02:00:34.032Z,1.87
2018-12-10T02:03:03.275Z,1.90
2018-12-10T02:05:32.510Z,2.67
2018-12-10T02:08:01.669Z,1.57
2018-12-10T02:10:30.900Z,2.07
2018-12-10T02:13:00.167Z,2.40
2018-12-10T02:15:29.461Z,2.50
2018-12-10T02:17:58.676Z,1.70
2018-12-10T02:20:27.897Z,1.70
2018-12-10T02:22:57.069Z,1.90
2018-12-10T02:25:26.321Z,2.15
2018-12-10T02:27:55.531Z,1.70
2018-12-10T02:30:24.808Z,1.40
2018-12-10T02:32:53.986Z,2.07
2018-12-10T02:35:23.193Z,1.70
2018-12-10T02:37:52.447Z,1.72
2018-12-10T02:40:21.673Z,2.03
2018-12-10T02:42:50.912Z,1.70
2018-12-10T02:45:20.349Z,2.10
2018-12-10T02:47:49.636Z,1.80
2018-12-10T02:50:19.227Z,1.73
2018-12-10T02:52:48.531Z,2.10
2018-12-10T02:55:18.324Z,1.70
2018-12-10T02:57:47.518Z,1.73
2018-12-10T03:00:17.413Z,1.80
2018-12-10T03:02:46.652Z,1.95
2018-12-10T03:05:17.726Z,1.17
2018-12-10T03:07:47.054Z,1.23
2018-12-10T03:10:17.179Z,1.57
2018-12-10T03:12:46.470Z,1.20
2018-12-10T03:15:20.336Z,1.03
2018-12-10T03:17:49.616Z,1.10
2018-12-10T03:20:20.688Z,1.10
2018-12-10T03:22:49.951Z,1.00
2018-12-10T03:25:19.669Z,1.13
2018-12-10T03:27:48.891Z,1.10
2018-12-10T03:30:18.794Z,0.87
2018-12-10T03:32:48.015Z,1.80
2018-12-10T03:35:18.295Z,1.43
2018-12-10T03:37:47.522Z,0.97
2018-12-10T03:40:17.871Z,1.30
2018-12-10T03:42:47.137Z,1.60
2018-12-10T03:45:17.069Z,1.70
2018-12-10T03:47:46.354Z,1.50
2018-12-10T03:50:16.634Z,2.00
2018-12-10T03:52:45.867Z,1.80
2018-12-10T03:55:16.151Z,1.90
2018-12-10T03:57:45.555Z,1.93
2018-12-10T04:00:16.609Z,2.83
2018-12-10T04:02:45.892Z,2.20
2018-12-10T04:05:16.144Z,2.03
2018-12-10T04:07:45.496Z,2.30
2018-12-10T04:10:15.940Z,1.70
2018-12-10T04:12:45.179Z,2.30
2018-12-10T04:15:14.951Z,2.23
2018-12-10T04:17:46.315Z,2.10
2018-12-10T04:20:17.024Z,1.80
2018-12-10T04:22:46.273Z,2.70
2018-12-10T04:25:16.598Z,2.33
2018-12-10T04:27:46.070Z,2.03
2018-12-10T04:30:15.922Z,2.10
2018-12-10T04:32:45.102Z,2.03
2018-12-10T04:35:15.758Z,1.97
2018-12-10T04:37:44.945Z,2.97
2018-12-10T04:40:14.539Z,2.10
2018-12-10T04:42:43.714Z,2.07
2018-12-10T04:45:13.493Z,2.33
2018-12-10T04:47:46.280Z,2.07
2018-12-10T04:50:15.690Z,2.40
2018-12-10T04:52:44.941Z,2.83
2018-12-10T04:55:15.540Z,1.93
2018-12-10T04:57:44.710Z,2.37
2018-12-10T05:00:15.028Z,2.23
2018-12-10T05:02:44.537Z,2.83
2018-12-10T05:05:15.825Z,1.93
2018-12-10T05:07:45.162Z,2.22
2018-12-10T05:10:15.976Z,2.50
2018-12-10T05:12:45.230Z,2.80
2018-12-10T05:15:15.183Z,2.67
2018-12-10T05:17:44.352Z,2.10
2018-12-10T05:20:15.015Z,3.67
2018-12-10T05:22:44.240Z,2.30
2018-12-10T05:25:13.662Z,2.57
2018-12-10T05:27:44.329Z,4.00
2018-12-10T05:30:14.327Z,2.80
2018-12-10T05:32:43.498Z,2.10
2018-12-10T05:35:12.673Z,1.87
2018-12-10T05:37:41.840Z,2.52
2018-12-10T05:40:11.122Z,1.97
2018-12-10T05:42:40.818Z,2.97
2018-12-10T05:45:10.369Z,2.30
2018-12-10T05:47:40.424Z,2.07
2018-12-10T05:50:09.672Z,1.90
2018-12-10T05:52:38.984Z,1.80
2018-12-10T05:55:08.241Z,2.27
2018-12-10T05:57:37.515Z,2.20
2018-12-10T06:00:06.815Z,2.60
2018-12-10T06:02:36.015Z,3.03
2018-12-10T06:05:05.677Z,2.08
2018-12-10T06:07:34.872Z,2.70
2018-12-10T06:10:04.161Z,2.40
2018-12-10T06:12:33.412Z,1.70
2018-12-10T06:15:02.725Z,1.67
2018-12-10T06:17:32.008Z,2.10
2018-12-10T06:20:01.208Z,2.17
2018-12-10T06:22:30.413Z,2.00
2018-12-10T06:24:59.619Z,2.00
2018-12-10T06:27:28.846Z,2.20
2018-12-10T06:29:58.033Z,2.08
2018-12-10T06:32:27.238Z,1.63
2018-12-10T06:34:56.423Z,2.35
2018-12-10T06:37:25.640Z,2.00
2018-12-10T06:39:54.849Z,1.70
2018-12-10T06:42:24.158Z,1.90
2018-12-10T06:44:53.316Z,2.00
2018-12-10T06:47:22.548Z,1.80
2018-12-10T06:49:51.763Z,1.93
2018-12-10T06:52:20.995Z,1.67
2018-12-10T06:54:50.190Z,2.30
2018-12-10T06:57:19.409Z,1.90
2018-12-10T06:59:48.639Z,2.00
2018-12-10T07:02:17.930Z,1.90
2018-12-10T07:04:47.244Z,1.62
2018-12-10T07:07:16.497Z,1.60
2018-12-10T07:09:45.718Z,1.87
2018-12-10T07:12:15.066Z,1.57
2018-12-10T07:14:44.494Z,1.97
2018-12-10T07:17:13.689Z,1.90
2018-12-10T07:19:42.991Z,2.77
2018-12-10T07:22:12.198Z,2.77
2018-12-10T07:24:41.460Z,2.00
2018-12-10T07:27:10.921Z,1.50
2018-12-10T07:29:40.117Z,1.30
2018-12-10T07:32:09.830Z,1.90
2018-12-10T07:34:39.096Z,1.90
2018-12-10T07:37:08.651Z,1.90
2018-12-10T07:39:37.800Z,2.30
2018-12-10T07:42:07.123Z,2.07
2018-12-10T07:44:37.990Z,2.60
2018-12-10T07:47:07.318Z,1.75
2018-12-10T07:49:36.588Z,1.90
2018-12-10T07:52:06.260Z,1.50
2018-12-10T07:54:35.479Z,1.90
2018-12-10T07:57:04.676Z,2.00
2018-12-10T07:59:34.176Z,1.80
2018-12-10T08:02:03.759Z,2.12
2018-12-10T08:04:33.000Z,1.92
2018-12-10T08:07:02.282Z,2.10
2018-12-10T08:09:31.479Z,1.93
2018-12-10T08:12:00.653Z,1.63
2018-12-10T08:14:29.897Z,1.73
2018-12-10T08:16:59.090Z,1.90
2018-12-10T08:19:28.347Z,1.60
2018-12-10T08:21:57.738Z,1.70
2018-12-10T08:24:26.965Z,1.73
2018-12-10T08:26:56.181Z,2.13
2018-12-10T08:29:25.432Z,2.33
2018-12-10T08:31:54.715Z,2.52
2018-12-10T08:34:23.860Z,1.70
2018-12-10T08:36:53.067Z,1.87
2018-12-10T08:39:22.259Z,1.77
2018-12-10T08:41:51.512Z,2.03
2018-12-10T08:44:20.889Z,3.20
2018-12-10T08:46:50.073Z,2.30
2018-12-10T08:49:19.257Z,4.33
2018-12-10T08:51:49.351Z,3.85
2018-12-10T08:54:20.757Z,3.50
2018-12-10T08:56:51.289Z,4.50
2018-12-10T08:59:21.485Z,3.00
2018-12-10T09:01:51.386Z,2.00
2018-12-10T09:04:20.629Z,1.87
2018-12-10T09:06:52.843Z,1.90
2018-12-10T09:09:22.735Z,2.35
2018-12-10T09:11:52.266Z,1.80
2018-12-10T09:14:23.073Z,1.83
2018-12-10T09:16:52.465Z,1.93
2018-12-10T09:19:21.801Z,2.10
2018-12-10T09:21:51.061Z,1.80
2018-12-10T09:24:20.366Z,2.33
2018-12-10T09:26:50.005Z,1.77
2018-12-10T09:29:19.228Z,1.70
2018-12-10T09:31:48.420Z,2.00
2018-12-10T09:34:17.666Z,1.60
2018-12-10T09:36:47.000Z,2.17
2018-12-10T09:39:16.873Z,2.40
2018-12-10T09:41:50.994Z,1.83
2018-12-10T09:44:20.289Z,2.20
2018-12-10T09:46:49.503Z,2.00
2018-12-10T09:49:18.757Z,2.23
2018-12-10T09:51:47.937Z,1.80
2018-12-10T09:54:17.128Z,2.03
2018-12-10T09:56:46.740Z,2.47
2018-12-10T09:59:15.877Z,2.17
2018-12-10T10:01:45.203Z,1.80
2018-12-10T10:04:14.521Z,2.90
2018-12-10T10:06:43.947Z,2.10
2018-12-10T10:09:12.991Z,2.13
2018-12-10T10:11:42.212Z,2.07
2018-12-10T10:14:11.613Z,1.87
2018-12-10T10:16:40.812Z,2.10
2018-12-10T10:19:10.533Z,1.70
2018-12-10T10:21:39.746Z,1.62
2018-12-10T10:24:09.305Z,2.07
2018-12-10T10:26:38.486Z,6.13
2018-12-10T10:29:07.769Z,3.40
2018-12-10T10:31:36.988Z,2.60
2018-12-10T10:34:06.173Z,2.07
2018-12-10T10:36:35.344Z,1.53
2018-12-10T10:39:05.870Z,2.00
2018-12-10T10:41:35.035Z,1.93
2018-12-10T10:44:04.373Z,1.73
2018-12-10T10:46:33.698Z,2.73
2018-12-10T10:49:02.857Z,1.80
2018-12-10T10:51:32.059Z,1.63
2018-12-10T10:54:02.299Z,1.70
2018-12-10T10:56:31.581Z,2.10
2018-12-10T10:59:00.892Z,2.27
2018-12-10T11:01:36.357Z,2.02
2018-12-10T11:04:06.796Z,1.97
2018-12-10T11:06:37.171Z,1.83
2018-12-10T11:09:15.148Z,1.73
2018-12-10T11:11:40.052Z,1.63
2018-12-10T11:14:11.216Z,1.30
2018-12-10T11:16:41.631Z,2.05
2018-12-10T11:19:13.259Z,1.90
2018-12-10T11:21:42.488Z,1.77
2018-12-10T11:24:11.783Z,1.95
2018-12-10T11:26:41.011Z,1.67
2018-12-10T11:29:10.643Z,2.07
2018-12-10T11:31:39.879Z,1.70
2018-12-10T11:34:09.471Z,1.63
2018-12-10T11:36:38.670Z,2.47
2018-12-10T11:39:08.160Z,1.83
2018-12-10T11:41:37.389Z,1.30
2018-12-10T11:44:06.605Z,1.60
2018-12-10T11:46:35.800Z,1.87
2018-12-10T11:49:04.977Z,2.20
2018-12-10T11:51:34.184Z,1.80
2018-12-10T11:54:03.915Z,1.30
2018-12-10T11:56:32.681Z,2.23
2018-12-10T11:59:01.900Z,1.67
2018-12-10T12:01:31.179Z,1.80
2018-12-10T12:04:00.412Z,1.27
2018-12-10T12:06:29.912Z,1.57
2018-12-10T12:08:59.160Z,1.37
2018-12-10T12:11:28.427Z,1.10
2018-12-10T12:13:57.674Z,1.30
2018-12-10T12:16:27.035Z,1.57
2018-12-10T12:18:57.637Z,1.67
2018-12-10T12:21:25.478Z,1.27
2018-12-10T12:23:54.656Z,1.37
2018-12-10T12:26:23.945Z,1.80
2018-12-10T12:28:53.149Z,1.37
2018-12-10T12:31:22.321Z,1.63
2018-12-10T12:33:51.502Z,1.60
2018-12-10T12:36:20.745Z,1.33
2018-12-10T12:38:49.976Z,1.50
2018-12-10T12:41:19.202Z,1.40
2018-12-10T12:43:48.425Z,1.33
2018-12-10T12:46:17.728Z,1.40
2018-12-10T12:48:47.184Z,1.23
2018-12-10T12:51:16.128Z,1.80
2018-12-10T12:53:45.333Z,1.40
2018-12-10T12:56:14.543Z,1.70
2018-12-10T12:58:43.729Z,1.92
2018-12-10T13:01:12.988Z,2.03
2018-12-10T13:03:42.438Z,1.80
2018-12-10T13:06:11.991Z,1.83
2018-12-10T13:08:41.241Z,2.03
2018-12-10T13:11:10.776Z,1.80
2018-12-10T13:13:39.985Z,2.07
2018-12-10T13:16:09.759Z,2.53
2018-12-10T13:18:38.956Z,2.30
2018-12-10T13:21:08.522Z,2.27
2018-12-10T13:23:37.708Z,2.57
2018-12-10T13:26:06.973Z,2.10
2018-12-10T13:28:36.175Z,2.77
2018-12-10T13:31:05.399Z,2.03
2018-12-10T13:33:34.576Z,2.20
2018-12-10T13:36:03.830Z,2.60
2018-12-10T13:38:36.896Z,2.08
2018-12-10T13:41:02.490Z,2.00
2018-12-10T13:43:31.731Z,2.95
2018-12-10T13:46:01.009Z,2.47
2018-12-10T13:48:30.140Z,2.10
2018-12-10T13:50:59.337Z,1.80
2018-12-10T13:53:28.516Z,2.73
2018-12-10T13:55:57.718Z,1.70
2018-12-10T13:58:26.903Z,1.72
2018-12-10T14:00:56.166Z,1.80
2018-12-10T14:03:25.443Z,1.83
2018-12-10T14:05:54.664Z,1.70
2018-12-10T14:08:23.820Z,2.67
2018-12-10T14:10:53.025Z,1.80
2018-12-10T14:13:22.225Z,2.00
2018-12-10T14:15:51.497Z,1.77
2018-12-10T14:18:20.695Z,1.70
2018-12-10T14:20:49.899Z,2.00
2018-12-10T14:23:19.121Z,2.40
2018-12-10T14:25:48.360Z,2.10
2018-12-10T14:28:17.689Z,2.60
2018-12-10T14:30:47.201Z,2.03
2018-12-10T14:33:16.485Z,2.20
2018-12-10T14:35:45.693Z,2.50
2018-12-10T14:38:14.939Z,1.97
2018-12-10T14:40:44.199Z,2.60
2018-12-10T14:43:13.551Z,2.47
2018-12-10T14:45:42.764Z,2.13
2018-12-10T14:48:11.912Z,2.47
2018-12-10T14:50:41.158Z,3.00
2018-12-10T14:53:10.386Z,2.00
2018-12-10T14:55:39.662Z,2.37
2018-12-10T14:58:09.351Z,2.50
2018-12-10T15:00:38.666Z,2.37
2018-12-10T15:03:08.137Z,2.60
2018-12-10T15:05:37.624Z,2.37
2018-12-10T15:08:06.971Z,2.50
2018-12-10T15:10:36.201Z,3.13
2018-12-10T15:13:05.414Z,3.13
2018-12-10T15:15:34.633Z,3.25
2018-12-10T15:18:03.866Z,2.80
2018-12-10T15:20:33.081Z,3.90
2018-12-10T15:23:02.263Z,2.40
2018-12-10T15:25:31.530Z,2.53
2018-12-10T15:28:00.710Z,2.42
2018-12-10T15:30:29.881Z,2.23
2018-12-10T15:32:59.248Z,2.33
2018-12-10T15:35:28.929Z,1.98
2018-12-10T15:37:58.141Z,2.20
2018-12-10T15:40:27.363Z,4.20
2018-12-10T15:42:56.596Z,2.60
2018-12-10T15:45:26.193Z,1.75
2018-12-10T15:47:55.433Z,2.20
2018-12-10T15:50:24.629Z,2.10
2018-12-10T15:52:53.930Z,2.90
2018-12-10T15:55:23.130Z,2.43
2018-12-10T15:57:52.367Z,2.07
2018-12-10T16:00:21.817Z,2.02
2018-12-10T16:02:51.259Z,2.43
2018-12-10T16:05:20.726Z,2.30
2018-12-10T16:07:49.964Z,1.73
2018-12-10T16:10:19.132Z,2.10
2018-12-10T16:12:48.405Z,1.95
2018-12-10T16:15:17.976Z,2.33
2018-12-10T16:17:47.205Z,1.90
2018-12-10T16:20:17.216Z,1.80
2018-12-10T16:22:46.450Z,2.27
2018-12-10T16:25:16.543Z,2.10
2018-12-10T16:27:45.835Z,1.70
2018-12-10T16:30:16.751Z,1.73
2018-12-10T16:32:46.004Z,1.77
2018-12-10T16:35:16.183Z,1.93
2018-12-10T16:37:45.354Z,1.60
2018-12-10T16:40:15.313Z,2.20
2018-12-10T16:42:44.540Z,2.45
2018-12-10T16:45:14.158Z,2.07
2018-12-10T16:47:43.506Z,1.93
2018-12-10T16:50:12.846Z,2.80
2018-12-10T16:52:42.076Z,2.03
2018-12-10T16:55:11.587Z,2.10
2018-12-10T16:57:40.781Z,1.87
2018-12-10T17:00:13.448Z,2.02
2018-12-10T17:02:42.699Z,2.00
2018-12-10T17:05:12.168Z,2.10
2018-12-10T17:07:42.669Z,2.10
2018-12-10T17:10:12.398Z,2.25
2018-12-10T17:12:42.724Z,1.97
2018-12-10T17:15:11.942Z,2.23
2018-12-10T17:17:41.841Z,2.30
2018-12-10T17:20:16.773Z,2.67
2018-12-10T17:22:45.979Z,2.30
2018-12-10T17:25:16.783Z,2.20
2018-12-10T17:27:46.051Z,1.75
2018-12-10T17:30:15.847Z,2.03
2018-12-10T17:32:45.061Z,2.20
2018-12-10T17:35:14.257Z,2.73
2018-12-10T17:37:43.422Z,2.40
2018-12-10T17:40:12.648Z,2.53
2018-12-10T17:42:41.861Z,2.57
2018-12-10T17:45:11.196Z,2.80
2018-12-10T17:47:40.356Z,2.50
2018-12-10T17:50:11.938Z,2.20
2018-12-10T17:52:41.170Z,2.87
2018-12-10T17:55:10.392Z,2.77
2018-12-10T17:57:39.564Z,2.90
2018-12-10T18:00:14.286Z,2.80
2018-12-10T18:02:43.451Z,3.40
2018-12-10T18:05:13.354Z,3.20
2018-12-10T18:07:42.565Z,3.73
2018-12-10T18:10:11.781Z,3.80
2018-12-10T18:12:41.026Z,4.43
2018-12-10T18:15:10.293Z,3.67
2018-12-10T18:17:40.445Z,4.33
2018-12-10T18:20:12.488Z,5.28
2018-12-10T18:22:41.781Z,3.60
2018-12-10T18:25:10.999Z,3.20
2018-12-10T18:27:40.314Z,4.20
2018-12-10T18:30:11.304Z,3.03
2018-12-10T18:32:40.617Z,3.10
2018-12-10T18:35:10.810Z,3.03
2018-12-10T18:37:40.180Z,3.90
2018-12-10T18:40:12.541Z,3.43
2018-12-10T18:42:42.625Z,2.95
2018-12-10T18:45:16.739Z,4.00
2018-12-10T18:47:45.933Z,3.13
2018-12-10T18:50:16.804Z,3.10
2018-12-10T18:52:46.040Z,2.90
2018-12-10T18:55:15.974Z,2.93
2018-12-10T18:57:45.260Z,3.30
2018-12-10T19:00:15.566Z,2.90
2018-12-10T19:02:44.975Z,3.40
2018-12-10T19:05:15.461Z,3.40
2018-12-10T19:07:44.696Z,3.30
2018-12-10T19:10:14.107Z,5.43
2018-12-10T19:12:43.360Z,3.83
2018-12-10T19:15:12.886Z,4.70
2018-12-10T19:17:42.135Z,4.93
2018-12-10T19:20:13.726Z,3.90
2018-12-10T19:22:40.582Z,3.40
2018-12-10T19:25:10.003Z,3.20
2018-12-10T19:27:39.183Z,2.53
2018-12-10T19:30:08.458Z,2.47
2018-12-10T19:32:41.353Z,2.33
2018-12-10T19:35:10.768Z,2.13
2018-12-10T19:37:39.985Z,2.00
2018-12-10T19:40:09.938Z,2.00
2018-12-10T19:42:39.131Z,2.57
2018-12-10T19:45:09.165Z,2.58
2018-12-10T19:47:38.389Z,2.60
2018-12-10T19:50:09.350Z,2.50
2018-12-10T19:52:39.270Z,2.60
2018-12-10T19:55:08.521Z,2.40
2018-12-10T19:57:38.791Z,2.27
2018-12-10T20:00:09.317Z,2.47
2018-12-10T20:02:39.442Z,2.10
2018-12-10T20:05:09.604Z,1.90
2018-12-10T20:07:39.639Z,2.90
2018-12-10T20:10:10.631Z,3.33
2018-12-10T20:12:39.982Z,3.00
2018-12-10T20:15:09.668Z,6.80
2018-12-10T20:17:38.868Z,3.10
2018-12-10T20:20:09.008Z,3.20
2018-12-10T20:22:38.282Z,3.20
2018-12-10T20:25:07.671Z,2.60
2018-12-10T20:27:36.945Z,2.93
2018-12-10T20:30:06.383Z,3.57
2018-12-10T20:32:35.565Z,3.37
2018-12-10T20:35:04.936Z,2.77
2018-12-10T20:37:34.177Z,3.10
2018-12-10T20:40:03.435Z,2.70
2018-12-10T20:42:32.731Z,3.03
2018-12-10T20:45:01.946Z,2.93
2018-12-10T20:47:31.427Z,2.60
2018-12-10T20:50:00.697Z,2.70
2018-12-10T20:52:29.897Z,2.30
2018-12-10T20:54:59.119Z,2.70
2018-12-10T20:57:29.093Z,3.30
2018-12-10T20:59:58.385Z,3.10
2018-12-10T21:02:29.345Z,2.70
2018-12-10T21:04:56.933Z,2.73
2018-12-10T21:07:26.203Z,3.10
2018-12-10T21:09:55.460Z,3.10
2018-12-10T21:12:24.865Z,2.60
2018-12-10T21:15:00.184Z,2.73
2018-12-10T21:17:23.390Z,2.98
2018-12-10T21:19:52.761Z,2.80
2018-12-10T21:22:21.961Z,2.75
2018-12-10T21:24:51.245Z,3.20
2018-12-10T21:27:20.474Z,3.30
2018-12-10T21:29:49.964Z,3.33
2018-12-10T21:32:19.155Z,3.60
2018-12-10T21:34:48.454Z,3.93
2018-12-10T21:37:17.746Z,3.60
2018-12-10T21:39:46.923Z,2.63
2018-12-10T21:42:16.416Z,3.37
2018-12-10T21:44:45.817Z,2.40
2018-12-10T21:47:15.626Z,3.00
2018-12-10T21:49:44.858Z,3.20
2018-12-10T21:52:15.020Z,3.08
2018-12-10T21:54:44.381Z,2.80
2018-12-10T21:57:14.181Z,3.00
2018-12-10T21:59:44.477Z,2.60
2018-12-10T22:02:14.628Z,2.43
2018-12-10T22:04:43.821Z,2.73
2018-12-10T22:07:13.972Z,3.73
2018-12-10T22:09:43.254Z,3.57
2018-12-10T22:12:12.809Z,3.20
2018-12-10T22:14:42.014Z,3.03
2018-12-10T22:17:11.270Z,2.37
2018-12-10T22:19:40.455Z,3.40
2018-12-10T22:22:09.685Z,3.33
2018-12-10T22:24:38.900Z,3.07
2018-12-10T22:27:08.662Z,2.70
2018-12-10T22:29:37.920Z,3.25
2018-12-10T22:32:07.166Z,2.90
2018-12-10T22:34:36.330Z,3.08
2018-12-10T22:37:05.740Z,3.00
2018-12-10T22:39:34.981Z,2.47
2018-12-10T22:42:04.161Z,2.80
2018-12-10T22:44:33.443Z,4.00
2018-12-10T22:47:02.746Z,2.42
2018-12-10T22:49:31.957Z,2.23
2018-12-10T22:52:01.207Z,2.70
2018-12-10T22:54:31.854Z,3.00
2018-12-10T22:57:02.696Z,2.93
2018-12-10T22:59:31.954Z,2.87
2018-12-10T23:02:01.167Z,3.20
2018-12-10T23:04:31.259Z,2.87
2018-12-10T23:07:02.584Z,2.47
2018-12-10T23:09:31.815Z,2.98
2018-12-10T23:12:01.695Z,3.00
2018-12-10T23:14:30.881Z,2.60
2018-12-10T23:17:00.077Z,2.27
2018-12-10T23:19:29.477Z,2.13
2018-12-10T23:22:01.515Z,2.67
2018-12-10T23:24:33.544Z,2.63
2018-12-10T23:27:03.385Z,1.93
2018-12-10T23:29:32.683Z,2.10
2018-12-10T23:32:03.245Z,2.90
2018-12-10T23:34:33.774Z,2.00
2018-12-10T23:37:02.982Z,2.80
2018-12-10T23:40:01.042Z,4.67
2018-12-10T23:42:31.173Z,3.07
2018-12-10T23:45:00.444Z,2.77
2018-12-10T23:47:29.669Z,2.73
2018-12-10T23:49:58.862Z,1.90
2018-12-10T23:52:28.046Z,2.77
2018-12-10T23:54:57.295Z,2.40
2018-12-10T23:57:27.303Z,2.40
2018-12-10T23:59:56.502Z,3.33
